Time;durP1;ratioP1;P1;durP2;ratioP2;P2;SDS_P1;SDS_P2;PMS_P1;PMS_P2;Temp;Humidity;BMP_temperature;BMP_pressure;BME280_temperature;BME280_humidity;BME280_pressure;Samples;Min_cycle;Max_cycle;Signal;HPM_P1;HPM_P2
2022/12/02 00:04:35;;;;;;;47.97;20.17;;;1.00;99.90;;;-1.51;100.00;100780.75;10572131;27;20056;-83
2022/12/02 00:09:42;;;;;;;44.50;19.10;;;1.00;99.90;;;-1.44;100.00;100783.88;10599003;27;20514;-83
2022/12/02 00:14:45;;;;;;;46.37;19.30;;;1.10;99.90;;;-1.39;100.00;100784.50;10604812;27;20145;-83
2022/12/02 00:19:48;;;;;;;46.90;19.60;;;1.10;99.90;;;-1.37;100.00;100774.84;10572318;27;20069;-83
2022/12/02 00:24:51;;;;;;;33.33;14.83;;;1.20;99.90;;;-1.35;100.00;100768.63;10635450;27;20067;-83
2022/12/02 00:29:55;;;;;;;28.27;13.03;;;1.20;99.90;;;-1.29;100.00;100772.69;10581715;27;20110;-83
2022/12/02 00:34:58;;;;;;;23.50;10.60;;;1.20;99.90;;;-1.25;100.00;100771.63;10629476;27;20055;-83
2022/12/02 00:40:01;;;;;;;27.50;12.23;;;1.30;99.90;;;-1.19;100.00;100767.84;10630157;27;20560;-83
2022/12/02 00:50:27;;;;;;;27.05;11.90;;;1.40;99.90;;;-1.05;100.00;100760.16;10611117;27;20081;-82
2022/12/02 00:55:30;;;;;;;19.63;10.13;;;1.40;99.90;;;-1.00;100.00;100768.59;10633523;27;20662;-83
2022/12/02 01:00:33;;;;;;;27.77;11.03;;;1.50;99.90;;;-0.96;100.00;100757.06;10596308;27;20117;-83
2022/12/02 01:05:36;;;;;;;25.47;11.80;;;1.60;99.90;;;-0.97;100.00;100752.75;10601870;27;20091;-84
2022/12/02 01:10:39;;;;;;;31.57;12.80;;;1.60;99.90;;;-1.01;100.00;100747.81;10609895;27;20055;-84
2022/12/02 01:15:41;;;;;;;29.20;11.83;;;1.50;99.90;;;-1.09;100.00;100758.59;10565059;27;20060;-84
2022/12/02 01:20:45;;;;;;;30.90;12.60;;;1.40;99.90;;;-1.12;100.00;100758.78;10536803;28;20503;-84
2022/12/02 01:25:48;;;;;;;24.70;11.37;;;1.40;99.90;;;-1.15;100.00;100758.94;10575289;27;20461;-83
2022/12/02 01:30:50;;;;;;;26.00;11.43;;;1.40;99.90;;;-1.15;100.00;100756.31;10609087;27;20063;-84
2022/12/02 01:35:53;;;;;;;28.20;11.70;;;1.40;99.90;;;-1.11;100.00;100755.25;10583268;27;20062;-84
2022/12/02 01:40:56;;;;;;;19.43;8.87;;;1.40;99.90;;;-1.06;100.00;100750.63;10577943;27;20079;-84
2022/12/02 01:46:00;;;;;;;19.17;9.90;;;1.50;99.90;;;-1.05;100.00;100744.50;10604390;27;20083;-84
2022/12/02 01:51:05;;;;;;;20.70;9.70;;;1.50;99.90;;;-0.97;100.00;100750.13;10577280;28;20063;-83
2022/12/02 01:56:10;;;;;;;24.63;11.07;;;1.50;99.90;;;-0.91;100.00;100744.59;10558558;27;20059;-84
2022/12/02 02:01:31;;;;;;;21.57;9.30;;;1.60;99.90;;;-0.85;100.00;100740.81;10575492;27;20056;-83
2022/12/02 02:06:38;;;;;;;18.17;8.37;;;1.60;99.90;;;-0.78;100.00;100741.34;10570142;27;20083;-84
2022/12/02 02:11:42;;;;;;;21.23;9.07;;;1.70;99.90;;;-0.72;100.00;100733.19;10589730;27;20066;-83
2022/12/02 02:16:45;;;;;;;29.17;11.27;;;1.70;99.90;;;-0.68;100.00;100735.53;10591870;27;20924;-83
2022/12/02 02:21:51;;;;;;;20.10;9.20;;;1.80;99.90;;;-0.62;100.00;100734.38;10589830;27;20055;-83
2022/12/02 02:26:54;;;;;;;26.57;10.23;;;1.80;99.90;;;-0.58;100.00;100728.06;10593404;27;20056;-83
2022/12/02 02:31:57;;;;;;;21.17;9.17;;;1.90;99.90;;;-0.55;100.00;100733.94;10586035;27;20089;-84
2022/12/02 02:37:01;;;;;;;20.17;8.60;;;1.90;99.90;;;-0.52;100.00;100735.56;10611644;27;20142;-84
2022/12/02 02:42:04;;;;;;;24.97;10.33;;;2.00;99.90;;;-0.48;100.00;100736.22;10597310;27;20059;-83
2022/12/02 02:47:07;;;;;;;26.17;11.70;;;2.00;99.90;;;-0.47;100.00;100728.31;10588624;27;20055;-83
2022/12/02 02:52:10;;;;;;;23.20;10.07;;;2.00;99.90;;;-0.42;100.00;100741.97;10585652;27;20067;-83
2022/12/02 02:57:13;;;;;;;21.73;9.20;;;2.00;99.90;;;-0.39;100.00;100738.34;10552110;27;20056;-83
2022/12/02 03:02:17;;;;;;;17.57;8.63;;;2.10;99.90;;;-0.38;100.00;100743.47;10571448;27;20496;-83
2022/12/02 03:07:21;;;;;;;17.90;7.93;;;2.10;99.90;;;-0.36;100.00;100741.63;10565327;27;20139;-83
2022/12/02 03:12:24;;;;;;;20.17;9.43;;;2.10;99.90;;;-0.34;100.00;100734.53;10556034;27;20079;-83
2022/12/02 03:17:27;;;;;;;23.87;9.70;;;2.20;99.90;;;-0.32;100.00;100735.28;10543693;28;20064;-83
2022/12/02 03:22:30;;;;;;;21.83;9.30;;;2.20;99.90;;;-0.31;100.00;100741.34;10568814;27;20151;-83
2022/12/02 03:27:34;;;;;;;26.97;10.67;;;2.20;99.90;;;-0.33;100.00;100735.38;10594908;27;20091;-83
2022/12/02 03:32:37;;;;;;;24.90;10.00;;;2.20;99.90;;;-0.32;100.00;100732.69;10565425;27;20064;-84
2022/12/02 03:37:40;;;;;;;21.70;9.57;;;2.20;99.90;;;-0.32;100.00;100724.84;10573977;27;20056;-83
2022/12/02 03:42:43;;;;;;;22.77;9.73;;;2.20;99.90;;;-0.31;100.00;100730.91;10586867;27;20411;-83
2022/12/02 03:47:46;;;;;;;21.07;10.23;;;2.20;99.90;;;-0.32;100.00;100735.28;10543436;27;20061;-83
2022/12/02 03:52:49;;;;;;;21.63;9.00;;;2.20;99.90;;;-0.33;100.00;100727.56;10564170;27;20549;-83
2022/12/02 03:57:52;;;;;;;29.17;11.20;;;2.20;99.90;;;-0.36;100.00;100727.69;10605078;27;20087;-83
2022/12/02 04:02:55;;;;;;;18.87;8.90;;;2.10;99.90;;;-0.38;100.00;100727.78;10567974;27;20064;-83
2022/12/02 04:07:58;;;;;;;21.83;10.67;;;2.10;99.90;;;-0.41;100.00;100719.31;10588575;27;20537;-83
2022/12/02 04:13:02;;;;;;;18.00;8.40;;;2.10;99.90;;;-0.43;100.00;100727.22;10596874;27;20064;-83
2022/12/02 04:18:04;;;;;;;23.20;9.87;;;2.10;99.90;;;-0.45;100.00;100718.63;10622891;27;20063;-83
2022/12/02 04:23:07;;;;;;;26.20;11.83;;;2.00;99.90;;;-0.45;100.00;100728.22;10631268;27;20062;-83
2022/12/02 04:28:10;;;;;;;20.93;9.73;;;2.00;99.90;;;-0.46;100.00;100724.78;10593542;27;20060;-83
2022/12/02 04:33:13;;;;;;;22.70;10.07;;;2.10;99.90;;;-0.44;100.00;100722.91;10588290;27;20113;-83
2022/12/02 04:38:16;;;;;;;24.50;10.80;;;2.00;99.90;;;-0.43;100.00;100727.22;10629218;27;20056;-83
2022/12/02 04:43:19;;;;;;;25.67;11.07;;;2.10;99.90;;;-0.38;100.00;100735.63;10603728;27;20060;-83
2022/12/02 04:48:22;;;;;;;25.23;10.97;;;2.10;99.90;;;-0.35;100.00;100737.25;10588059;27;20568;-83
2022/12/02 04:53:25;;;;;;;22.40;11.47;;;2.10;99.90;;;-0.30;100.00;100735.19;10591868;27;20067;-83
2022/12/02 04:58:28;;;;;;;27.27;11.70;;;2.10;99.90;;;-0.31;100.00;100734.34;10588101;27;20062;-83
2022/12/02 05:03:31;;;;;;;34.53;13.27;;;2.20;99.90;;;-0.28;100.00;100728.13;10594667;27;20063;-83
2022/12/02 05:08:34;;;;;;;32.70;12.07;;;2.20;99.90;;;-0.25;100.00;100721.88;10596733;27;20059;-83
2022/12/02 05:13:37;;;;;;;26.07;12.53;;;2.20;99.90;;;-0.21;100.00;100732.09;10581947;27;20060;-83
2022/12/02 05:18:40;;;;;;;26.80;11.90;;;2.30;99.90;;;-0.17;100.00;100732.78;10603868;27;20055;-84
2022/12/02 05:23:43;;;;;;;29.60;11.10;;;2.30;99.90;;;-0.13;100.00;100734.25;10601548;27;20421;-84
2022/12/02 05:28:46;;;;;;;34.60;14.93;;;2.30;99.90;;;-0.09;100.00;100741.84;10634664;27;20063;-82
2022/12/02 05:33:49;;;;;;;37.13;15.57;;;2.40;99.90;;;-0.07;100.00;100733.91;10588701;27;20058;-81
2022/12/02 05:38:51;;;;;;;36.33;15.10;;;2.40;99.90;;;-0.06;100.00;100746.91;10590441;27;20056;-80
2022/12/02 05:43:57;;;;;;;32.83;13.00;;;2.40;99.90;;;-0.04;100.00;100744.22;10610921;27;20059;-80
2022/12/02 05:49:00;;;;;;;26.40;10.73;;;2.40;99.90;;;-0.04;100.00;100739.81;10594197;27;20048;-81
2022/12/02 05:54:07;;;;;;;23.47;10.70;;;2.40;99.90;;;-0.01;100.00;100744.84;10590227;27;20084;-83
2022/12/02 05:59:18;;;;;;;23.47;10.93;;;2.50;99.90;;;-0.01;100.00;100736.19;10631949;27;20051;-82
2022/12/02 06:04:26;;;;;;;24.50;11.50;;;2.40;99.90;;;0.02;100.00;100737.78;10579347;27;20066;-82
2022/12/02 06:09:32;;;;;;;32.23;14.17;;;2.50;99.90;;;0.04;100.00;100744.59;10608463;27;20091;-82
2022/12/02 06:14:35;;;;;;;23.73;11.40;;;2.50;99.90;;;0.08;100.00;100747.91;10570388;27;20146;-82
2022/12/02 06:19:52;;;;;;;27.43;12.53;;;2.50;99.90;;;0.10;100.00;100756.47;10547337;28;20060;-82
2022/12/02 06:24:59;;;;;;;27.50;10.97;;;2.50;99.90;;;0.12;100.00;100755.47;10604607;27;20063;-82
2022/12/02 06:30:04;;;;;;;28.53;11.30;;;2.60;99.90;;;0.17;100.00;100760.41;10569146;28;20121;-82
2022/12/02 06:35:28;;;;;;;27.20;11.80;;;2.60;99.90;;;0.17;100.00;100763.88;10608342;27;20074;-82
2022/12/02 06:40:35;;;;;;;25.37;11.53;;;2.70;99.90;;;0.23;100.00;100760.06;10570146;28;20060;-82
2022/12/02 06:45:38;;;;;;;32.93;13.67;;;2.70;99.90;;;0.22;100.00;100759.22;10562730;27;20078;-82
2022/12/02 06:50:45;;;;;;;31.00;12.80;;;2.70;99.90;;;0.30;100.00;100768.41;10584203;27;20062;-82
2022/12/02 06:55:51;;;;;;;34.50;13.83;;;2.70;99.90;;;0.33;100.00;100771.69;10575105;27;20055;-82
2022/12/02 07:01:06;;;;;;;34.13;15.13;;;2.80;99.90;;;0.39;100.00;100767.88;10566092;27;20063;-82
2022/12/02 07:06:17;;;;;;;21.27;10.00;;;2.80;99.90;;;0.44;100.00;100768.47;10617399;27;20072;-82
2022/12/02 07:11:49;;;;;;;26.07;12.20;;;2.90;99.90;;;0.52;100.00;100774.91;10549949;28;20060;-82
2022/12/02 07:16:56;;;;;;;39.90;16.20;;;3.00;99.90;;;0.60;100.00;100784.94;10581642;27;20064;-82
2022/12/02 07:21:59;;;;;;;33.80;16.77;;;3.00;99.90;;;0.64;100.00;100786.44;10567089;27;20056;-83
2022/12/02 07:27:30;;;;;;;29.27;15.63;;;3.00;99.90;;;0.65;100.00;100790.72;10553337;27;20064;-82
2022/12/02 07:32:33;;;;;;;31.87;13.67;;;3.00;99.90;;;0.69;100.00;100784.38;10601764;27;20454;-83
2022/12/02 07:37:36;;;;;;;30.07;14.07;;;3.10;99.90;;;0.79;100.00;100788.16;10595866;27;20063;-83
2022/12/02 07:42:39;;;;;;;33.77;14.70;;;3.20;99.90;;;0.93;100.00;100789.94;10598770;27;20087;-82
2022/12/02 07:47:42;;;;;;;26.80;13.40;;;3.30;99.90;;;1.04;100.00;100795.38;10598504;27;20051;-83
2022/12/02 07:52:45;;;;;;;32.27;14.47;;;3.40;99.90;;;1.20;100.00;100797.03;10599158;27;20442;-83
2022/12/02 07:57:48;;;;;;;31.57;14.13;;;3.50;99.90;;;1.36;100.00;100794.34;10602715;27;20066;-82
2022/12/02 08:02:51;;;;;;;25.17;12.03;;;3.60;99.90;;;1.53;100.00;100788.91;10584805;27;20515;-83
2022/12/02 08:07:55;;;;;;;28.07;11.63;;;3.80;99.90;;;1.65;100.00;100790.75;10633021;27;20066;-83
2022/12/02 08:12:58;;;;;;;25.13;11.60;;;4.00;99.90;;;1.73;100.00;100801.59;10613432;27;20056;-82
2022/12/02 08:18:01;;;;;;;24.03;11.07;;;4.00;99.90;;;1.75;100.00;100798.91;10617948;27;20122;-83
2022/12/02 08:23:04;;;;;;;26.03;11.93;;;4.10;99.90;;;1.76;99.34;100798.78;10602425;27;20052;-82
2022/12/02 08:28:07;;;;;;;19.67;10.17;;;4.10;99.90;;;1.81;98.80;100803.75;10594688;27;20412;-83
2022/12/02 08:33:10;;;;;;;24.13;11.90;;;4.10;99.90;;;1.84;98.26;100798.28;10599080;27;20066;-83
2022/12/02 08:38:14;;;;;;;29.43;12.50;;;4.20;99.90;;;1.95;97.81;100797.63;10599488;27;20060;-83
2022/12/02 08:43:17;;;;;;;32.40;14.63;;;4.30;99.90;;;2.05;97.20;100790.84;10627632;27;20058;-83
2022/12/02 08:48:20;;;;;;;27.13;12.97;;;4.30;99.90;;;2.21;96.73;100795.94;10564128;27;20056;-83
2022/12/02 08:53:23;;;;;;;27.27;13.13;;;4.50;99.90;;;2.39;96.26;100798.19;10593524;27;20051;-83
2022/12/02 08:58:26;;;;;;;22.03;10.70;;;4.70;99.90;;;2.55;95.39;100803.28;10612972;27;20427;-83
2022/12/02 09:03:29;;;;;;;25.97;12.00;;;4.90;99.90;;;2.75;94.94;100803.72;10614746;27;20063;-83
2022/12/02 09:08:32;;;;;;;22.80;12.03;;;5.00;99.90;;;2.88;93.63;100808.06;10609606;27;20059;-83
2022/12/02 09:13:35;;;;;;;30.03;12.33;;;5.20;99.90;;;2.93;92.42;100805.09;10586197;27;20056;-83
2022/12/02 09:18:38;;;;;;;26.13;12.27;;;5.30;99.90;;;2.95;91.26;100800.59;10554262;28;20419;-83
2022/12/02 09:23:41;;;;;;;22.97;11.23;;;5.30;99.90;;;2.97;90.81;100795.25;10556278;28;20067;-83
2022/12/02 09:28:52;;;;;;;20.35;10.85;;;5.30;99.90;;;2.99;90.18;100801.22;10582010;27;20056;-83
2022/12/02 09:33:54;;;;;;;29.37;13.43;;;5.40;99.90;;;2.93;89.41;100792.81;10581025;28;20060;-83
2022/12/02 09:38:57;;;;;;;19.77;10.73;;;5.40;99.90;;;2.90;88.44;100797.44;10575418;27;20055;-83
2022/12/02 09:44:00;;;;;;;21.43;11.57;;;5.30;99.90;;;2.83;87.53;100804.91;10547520;27;20526;-83
2022/12/02 09:49:04;;;;;;;23.40;11.10;;;5.30;99.90;;;2.78;87.16;100799.13;10629011;27;20136;-83
2022/12/02 09:54:09;;;;;;;27.90;13.20;;;5.20;99.90;;;2.75;86.63;100788.81;10576712;27;20056;-83
2022/12/02 09:59:15;;;;;;;22.53;11.23;;;5.10;99.90;;;2.78;86.68;100793.88;10605692;27;20064;-83
2022/12/02 10:04:22;;;;;;;20.97;9.93;;;5.10;99.90;;;2.85;86.58;100783.78;10586383;27;20066;-83
2022/12/02 10:09:29;;;;;;;23.90;10.70;;;5.10;99.90;;;2.89;85.98;100778.22;10576810;27;20059;-83
2022/12/02 10:14:32;;;;;;;20.50;11.00;;;5.20;99.90;;;2.92;85.98;100779.81;10592074;27;20051;-83
2022/12/02 10:19:35;;;;;;;23.13;10.97;;;5.20;99.90;;;2.92;85.11;100778.00;10577624;27;20590;-83
2022/12/02 10:24:38;;;;;;;24.13;12.10;;;5.20;99.90;;;3.02;85.06;100787.91;10627606;27;20066;-83
2022/12/02 10:29:41;;;;;;;20.87;10.87;;;5.30;99.90;;;3.17;85.36;100778.94;10618724;27;20454;-83
2022/12/02 10:35:11;;;;;;;21.70;10.57;;;5.50;99.90;;;3.29;84.70;100774.63;10553116;28;20095;-83
2022/12/02 10:40:18;;;;;;;25.98;11.90;;;5.60;99.90;;;3.36;84.14;100768.88;10572768;27;20067;-83
2022/12/02 10:45:23;;;;;;;25.07;12.00;;;5.70;99.90;;;3.45;84.23;100762.09;10598443;27;20059;-83
2022/12/02 10:50:26;;;;;;;21.93;11.07;;;5.80;99.90;;;3.54;83.76;100763.22;10585426;27;20064;-84
2022/12/02 10:55:29;;;;;;;24.30;11.63;;;5.90;99.90;;;3.62;83.47;100766.16;10567513;27;20055;-83
2022/12/02 11:00:32;;;;;;;22.00;11.00;;;6.00;99.90;;;3.66;82.84;100759.75;10565504;27;20381;-83
2022/12/02 11:05:36;;;;;;;26.27;12.83;;;6.00;99.90;;;3.63;81.82;100763.44;10593158;27;20124;-83
2022/12/02 11:10:43;;;;;;;22.67;12.13;;;6.00;99.90;;;3.67;81.96;100761.44;10573526;27;20044;-83
2022/12/02 11:15:51;;;;;;;22.40;11.50;;;6.00;99.90;;;3.68;81.13;100752.59;10533607;27;20060;-83
2022/12/02 11:21:00;;;;;;;23.07;12.03;;;6.10;99.90;;;3.67;81.10;100753.53;10546951;28;20060;-83
2022/12/02 11:26:07;;;;;;;23.70;11.40;;;6.00;99.90;;;3.62;80.95;100745.97;10596307;27;20106;-83
2022/12/02 11:31:10;;;;;;;21.60;10.43;;;6.00;99.90;;;3.61;80.90;100744.31;10591423;27;20079;-83
2022/12/02 11:36:16;;;;;;;87.50;31.67;;;5.90;99.90;;;3.63;80.83;100739.78;10566293;28;20056;-83
2022/12/02 11:41:47;;;;;;;25.53;12.90;;;6.00;99.90;;;3.64;81.21;100744.06;10583912;27;20445;-83
2022/12/02 11:47:00;;;;;;;23.33;11.20;;;6.00;99.90;;;3.62;80.38;100745.97;10565822;27;20067;-83
2022/12/02 11:52:18;;;;;;;27.67;13.57;;;6.00;99.90;;;3.66;80.92;100736.09;10583224;27;20055;-83
2022/12/02 11:57:23;;;;;;;22.23;11.17;;;6.00;99.90;;;3.72;80.97;100738.28;10549741;27;20064;-83
2022/12/02 12:02:28;;;;;;;22.67;11.63;;;6.10;99.90;;;3.85;81.28;100727.72;10622097;27;20060;-83
2022/12/02 12:07:49;;;;;;;26.07;12.67;;;6.20;99.90;;;3.96;81.08;100726.00;10590946;27;20502;-83
2022/12/02 12:13:22;;;;;;;21.00;10.30;;;6.30;99.90;;;3.99;80.23;100733.63;10569388;27;20064;-83
2022/12/02 12:18:46;;;;;;;28.33;12.43;;;6.30;99.90;;;3.97;79.96;100727.66;10594967;27;20112;-83
2022/12/02 12:23:49;;;;;;;26.47;13.23;;;6.30;99.90;;;4.00;80.04;100730.03;10612695;27;20063;-83
2022/12/02 12:28:52;;;;;;;24.53;12.13;;;6.30;99.90;;;4.12;80.54;100732.72;10611871;27;20056;-83
2022/12/02 12:33:55;;;;;;;27.87;12.27;;;6.40;99.90;;;4.19;80.29;100733.94;10614360;27;20070;-83
2022/12/02 12:38:58;;;;;;;25.43;12.20;;;6.50;99.90;;;4.24;79.78;100731.81;10620686;27;20518;-83
2022/12/02 12:44:01;;;;;;;21.43;10.67;;;6.50;99.90;;;4.20;79.54;100725.97;10571816;28;20066;-83
2022/12/02 12:49:05;;;;;;;21.33;10.57;;;6.50;99.90;;;4.14;79.11;100722.91;10572203;28;20533;-82
2022/12/02 12:54:07;;;;;;;25.20;13.17;;;6.50;99.90;;;4.09;79.50;100722.44;10593970;28;20056;-82
2022/12/02 12:59:10;;;;;;;26.53;13.63;;;6.40;99.90;;;4.03;79.87;100723.75;10602880;27;20101;-82
2022/12/02 13:04:13;;;;;;;19.60;9.77;;;6.30;99.90;;;3.96;80.20;100722.53;10618594;27;20083;-82
2022/12/02 13:09:16;;;;;;;25.23;11.27;;;6.30;99.90;;;3.91;80.62;100720.22;10601827;27;20510;-82
2022/12/02 13:14:19;;;;;;;21.13;11.47;;;6.20;99.90;;;3.85;80.72;100727.72;10590251;27;20056;-82
2022/12/02 13:19:22;;;;;;;19.60;10.33;;;6.20;99.90;;;3.74;81.03;100739.00;10595642;27;20155;-82
2022/12/02 13:24:25;;;;;;;17.70;9.97;;;6.10;99.90;;;3.66;81.22;100729.06;10578615;28;20060;-82
2022/12/02 13:29:28;;;;;;;27.07;12.43;;;6.00;99.90;;;3.59;81.33;100734.84;10587278;28;20056;-82
2022/12/02 13:34:31;;;;;;;31.77;12.53;;;5.90;99.90;;;3.48;81.51;100738.25;10604421;27;20064;-82
2022/12/02 13:39:34;;;;;;;29.03;11.97;;;5.80;99.90;;;3.28;81.62;100737.03;10596120;27;20063;-82
2022/12/02 13:44:37;;;;;;;23.17;10.97;;;5.70;99.90;;;3.16;82.18;100749.22;10608879;27;20055;-82
2022/12/02 13:49:40;;;;;;;25.23;12.13;;;5.60;99.90;;;3.08;82.78;100756.81;10608351;27;20062;-82
2022/12/02 13:54:43;;;;;;;26.20;11.87;;;5.50;99.90;;;3.01;83.55;100759.97;10610483;27;20059;-82
2022/12/02 13:59:46;;;;;;;26.80;12.53;;;5.40;99.90;;;2.97;84.09;100758.50;10605392;27;20147;-82
2022/12/02 14:04:49;;;;;;;21.83;11.40;;;5.30;99.90;;;2.91;84.91;100759.75;10614284;27;20581;-82
2022/12/02 14:09:53;;;;;;;24.73;11.03;;;5.30;99.90;;;2.81;85.22;100767.41;10589297;27;20055;-83
2022/12/02 14:14:57;;;;;;;17.27;9.40;;;5.20;99.90;;;2.69;85.72;100766.44;10579888;27;20062;-83
2022/12/02 14:20:00;;;;;;;26.47;12.33;;;5.10;99.90;;;2.59;86.12;100762.78;10614555;27;20476;-83
2022/12/02 14:25:03;;;;;;;31.23;13.67;;;5.00;99.90;;;2.45;86.56;100767.25;10593428;27;20067;-83
2022/12/02 14:30:07;;;;;;;24.43;12.80;;;4.80;99.90;;;2.37;87.44;100763.34;10607960;27;20059;-83
2022/12/02 14:35:10;;;;;;;26.70;13.40;;;4.80;99.90;;;2.29;87.78;100767.44;10592228;27;20073;-83
2022/12/02 14:40:14;;;;;;;26.27;13.37;;;4.70;99.90;;;2.21;88.42;100765.31;10575522;27;20115;-83
2022/12/02 14:45:17;;;;;;;29.67;13.17;;;4.60;99.90;;;2.18;89.09;100770.75;10613400;27;20055;-83
2022/12/02 14:50:26;;;;;;;34.93;15.77;;;4.60;99.90;;;2.12;89.56;100776.41;10611632;27;20063;-83
2022/12/02 14:55:29;;;;;;;49.50;18.67;;;4.50;99.90;;;2.08;90.05;100767.03;10592173;27;20056;-83
2022/12/02 15:00:33;;;;;;;35.13;15.07;;;4.50;99.90;;;2.04;90.51;100770.78;10578874;27;20112;-83
2022/12/02 15:05:36;;;;;;;37.77;17.10;;;4.40;99.90;;;2.01;90.92;100779.72;10580417;27;20056;-83
2022/12/02 15:10:39;;;;;;;36.13;15.50;;;4.40;99.90;;;1.98;91.57;100784.31;10563319;27;20491;-82
2022/12/02 15:15:43;;;;;;;40.93;16.27;;;4.40;99.90;;;1.95;91.58;100789.75;10596876;27;20055;-83
2022/12/02 15:20:56;;;;;;;31.97;14.07;;;4.30;99.90;;;1.89;92.38;100788.38;10627851;27;20055;-82
2022/12/02 15:25:59;;;;;;;44.97;18.33;;;4.30;99.90;;;1.88;92.61;100794.56;10586865;27;20055;-82
2022/12/02 15:31:02;;;;;;;36.33;14.97;;;4.30;99.90;;;1.84;93.14;100809.63;10590380;27;20060;-82
2022/12/02 15:36:05;;;;;;;33.27;14.40;;;4.30;99.90;;;1.81;93.37;100804.59;10576515;27;20087;-82
2022/12/02 15:41:09;;;;;;;59.63;22.13;;;4.20;99.90;;;1.79;93.92;100805.59;10608829;27;20555;-82
2022/12/02 15:46:12;;;;;;;41.13;17.70;;;4.20;99.90;;;1.75;94.41;100815.44;10618897;27;20060;-81
2022/12/02 15:51:15;;;;;;;46.43;19.50;;;4.20;99.90;;;1.73;94.45;100817.31;10588745;27;20067;-82
2022/12/02 15:56:18;;;;;;;48.67;21.23;;;4.10;99.90;;;1.70;95.08;100822.75;10606870;27;20461;-82
2022/12/02 16:01:20;;;;;;;104.83;37.20;;;4.10;99.90;;;1.64;95.30;100823.13;10585785;27;20052;-80
2022/12/02 16:06:23;;;;;;;63.07;27.60;;;4.10;99.90;;;1.62;95.63;100825.03;10593683;27;20059;-82
2022/12/02 16:11:26;;;;;;;44.13;20.27;;;4.00;99.90;;;1.57;96.03;100820.06;10615293;27;20055;-83
2022/12/02 16:16:29;;;;;;;38.70;20.10;;;4.00;99.90;;;1.56;96.65;100822.75;10581763;27;20066;-84
2022/12/02 16:21:33;;;;;;;35.73;16.60;;;4.00;99.90;;;1.56;96.51;100828.88;10598648;27;20133;-83
2022/12/02 16:26:35;;;;;;;40.70;18.70;;;4.00;99.90;;;1.54;97.00;100824.63;10580747;27;20867;-82
2022/12/02 16:31:39;;;;;;;38.77;17.97;;;4.00;99.90;;;1.56;97.31;100839.34;10568716;27;20063;-82
2022/12/02 16:36:42;;;;;;;32.37;16.67;;;4.00;99.90;;;1.56;97.50;100830.63;10599960;27;20090;-81
2022/12/02 16:41:46;;;;;;;29.03;14.57;;;4.00;99.90;;;1.55;97.77;100844.66;10621509;27;20059;-81
2022/12/02 16:46:49;;;;;;;34.83;16.57;;;4.00;99.90;;;1.48;97.73;100843.34;10589544;27;20495;-81
2022/12/02 16:51:52;;;;;;;29.13;14.40;;;3.90;99.90;;;1.44;97.76;100847.09;10636828;27;20075;-81
2022/12/02 16:56:55;;;;;;;25.53;11.47;;;3.80;99.90;;;1.38;98.11;100836.97;10594089;27;20435;-82
2022/12/02 17:01:58;;;;;;;36.90;17.63;;;3.80;99.90;;;1.36;98.55;100846.72;10610255;27;20059;-80
2022/12/02 17:07:02;;;;;;;34.13;17.73;;;3.80;99.90;;;1.34;98.75;100855.50;10619792;27;20430;-82
2022/12/02 17:12:47;;;;;;;42.30;16.93;;;3.70;99.90;;;1.33;99.12;100858.22;10601507;27;20055;-82
2022/12/02 17:18:25;;;;;;;45.20;20.53;;;3.70;99.90;;;1.26;99.67;100860.38;10630719;27;20124;-83
2022/12/02 17:24:09;;;;;;;31.52;16.38;;;3.70;99.90;;;1.29;99.83;100873.28;10620241;27;20083;-80
2022/12/02 17:29:14;;;;;;;49.30;20.80;;;3.60;99.90;;;1.25;100.00;100874.38;10621007;27;20063;-80
2022/12/02 17:34:17;;;;;;;45.47;20.93;;;3.60;99.90;;;1.24;100.00;100867.47;10590685;27;20063;-80
2022/12/02 17:39:21;;;;;;;42.10;19.20;;;3.60;99.90;;;1.24;100.00;100877.94;10596690;27;20406;-82
2022/12/02 17:44:24;;;;;;;50.63;21.80;;;3.60;99.90;;;1.24;100.00;100877.94;10584929;27;20059;-82
2022/12/02 17:49:27;;;;;;;50.20;23.77;;;3.60;99.90;;;1.23;100.00;100878.03;10620009;27;20085;-80
2022/12/02 17:54:36;;;;;;;38.03;16.80;;;3.60;99.90;;;1.24;100.00;100887.56;10586920;27;20138;-82
2022/12/02 17:59:38;;;;;;;41.50;18.17;;;3.60;99.90;;;1.21;100.00;100880.75;10597996;27;20090;-80
2022/12/02 18:04:43;;;;;;;33.20;15.73;;;3.60;99.90;;;1.20;100.00;100884.31;10614461;27;20056;-81
2022/12/02 18:09:46;;;;;;;41.77;18.47;;;3.50;99.90;;;1.14;100.00;100871.59;10622948;27;20056;-80
2022/12/02 18:14:49;;;;;;;38.60;17.63;;;3.50;99.90;;;1.15;100.00;100875.03;10604272;27;20499;-80
2022/12/02 18:19:53;;;;;;;45.23;20.03;;;3.50;99.90;;;1.14;100.00;100879.44;10578661;27;20055;-82
2022/12/02 18:24:57;;;;;;;40.47;18.87;;;3.50;99.90;;;1.15;100.00;100877.66;10605202;27;20078;-80
2022/12/02 18:30:00;;;;;;;67.83;36.03;;;3.50;99.90;;;1.14;100.00;100876.81;10617131;27;20060;-80
2022/12/02 18:35:04;;;;;;;52.60;27.13;;;3.50;99.90;;;1.15;100.00;100886.34;10566969;27;20547;-80
2022/12/02 18:40:19;;;;;;;39.70;19.87;;;3.50;99.90;;;1.16;100.00;100874.94;10604771;27;20065;-80
2022/12/02 18:45:22;;;;;;;38.03;18.03;;;3.50;99.90;;;1.17;100.00;100886.25;10579707;27;20059;-81
2022/12/02 18:50:25;;;;;;;35.13;18.20;;;3.50;99.90;;;1.16;100.00;100895.06;10580968;27;20056;-80
2022/12/02 18:55:28;;;;;;;39.50;17.53;;;3.50;99.90;;;1.17;100.00;100886.25;10591532;27;20450;-80
2022/12/02 19:00:31;;;;;;;36.73;17.17;;;3.50;99.90;;;1.17;100.00;100876.63;10590495;27;20056;-80
2022/12/02 19:05:34;;;;;;;49.47;21.47;;;3.50;99.90;;;1.16;100.00;100881.97;10596194;27;20071;-80
2022/12/02 19:10:37;;;;;;;47.33;20.33;;;3.50;99.90;;;1.17;100.00;100884.47;10565222;27;20079;-81
2022/12/02 19:15:40;;;;;;;40.10;17.93;;;3.50;99.90;;;1.16;100.00;100877.56;10600995;27;20070;-80
2022/12/02 19:20:43;;;;;;;47.43;20.47;;;3.50;99.90;;;1.18;100.00;100875.69;10569805;27;20060;-81
2022/12/02 19:25:46;;;;;;;35.77;16.80;;;3.50;99.90;;;1.18;100.00;100878.31;10620250;27;20503;-81
2022/12/02 19:30:52;;;;;;;37.17;15.83;;;3.60;99.90;;;1.21;100.00;100877.28;10575055;27;20060;-81
2022/12/02 19:35:55;;;;;;;38.40;16.73;;;3.60;99.90;;;1.23;100.00;100883.28;10628792;27;20486;-82
2022/12/02 19:40:58;;;;;;;45.47;19.80;;;3.60;99.90;;;1.22;100.00;100884.22;10569396;27;20152;-83
2022/12/02 19:46:01;;;;;;;34.03;16.57;;;3.60;99.90;;;1.19;100.00;100869.50;10598254;27;20056;-83
2022/12/02 19:51:04;;;;;;;40.50;18.73;;;3.60;99.90;;;1.22;100.00;100869.34;10608750;27;20101;-83
2022/12/02 19:56:07;;;;;;;45.83;20.97;;;3.60;99.90;;;1.23;100.00;100885.91;10587098;27;20178;-82
2022/12/02 20:01:10;;;;;;;36.20;17.60;;;3.60;99.90;;;1.23;100.00;100883.28;10593804;27;20060;-83
2022/12/02 20:06:13;;;;;;;43.70;17.47;;;3.60;99.90;;;1.24;100.00;100883.19;10558794;27;20078;-82
2022/12/02 20:11:16;;;;;;;43.73;19.47;;;3.60;99.90;;;1.23;100.00;100886.72;10595635;27;20146;-84
2022/12/02 20:16:19;;;;;;;32.50;15.37;;;3.60;99.90;;;1.21;100.00;100882.53;10585615;27;20063;-83
2022/12/02 20:21:22;;;;;;;38.40;17.70;;;3.60;99.90;;;1.24;100.00;100883.19;10596756;27;20519;-83
2022/12/02 20:26:25;;;;;;;43.20;17.60;;;3.60;99.90;;;1.29;100.00;100896.84;10583924;27;20110;-83
2022/12/02 20:31:28;;;;;;;43.47;17.70;;;3.60;99.90;;;1.29;100.00;100898.63;10607015;27;20063;-83
2022/12/02 20:36:33;;;;;;;38.40;15.77;;;3.70;99.90;;;1.28;100.00;100895.16;10599131;27;20064;-83
2022/12/02 20:41:35;;;;;;;35.93;14.90;;;3.70;99.90;;;1.31;100.00;100901.97;10631593;27;20063;-83
2022/12/02 20:46:38;;;;;;;34.53;15.10;;;3.70;99.90;;;1.32;100.00;100908.94;10644344;27;20426;-83
2022/12/02 20:51:42;;;;;;;42.97;17.80;;;3.70;99.90;;;1.35;100.00;100906.09;10590116;27;20060;-83